Time;durP1;ratioP1;P1;durP2;ratioP2;P2;SDS_P1;SDS_P2;PMS_P1;PMS_P2;Temp;Humidity;BMP_temperature;BMP_pressure;BME280_temperature;BME280_humidity;BME280_pressure;Samples;Min_cycle;Max_cycle;Signal;HPM_P1;HPM_P2
2021/12/30 00:01:10;;;;;;;19.75;13.25;;;11.90;96.70;;;;;;5094949;27;20471;-75
2021/12/30 00:03:39;;;;;;;18.35;12.77;;;11.90;96.70;;;;;;5119438;27;20384;-76
2021/12/30 00:06:08;;;;;;;18.70;14.35;;;12.00;96.70;;;;;;5121726;27;20562;-75
2021/12/30 00:08:37;;;;;;;14.77;12.20;;;12.00;96.70;;;;;;5097154;27;20126;-75
2021/12/30 00:11:07;;;;;;;14.38;11.82;;;11.90;96.70;;;;;;5096079;27;20055;-76
2021/12/30 00:13:35;;;;;;;12.85;11.27;;;11.90;96.70;;;;;;5122703;27;20054;-76
2021/12/30 00:16:04;;;;;;;14.25;11.45;;;11.90;96.70;;;;;;5079394;27;20043;-75
2021/12/30 00:18:32;;;;;;;14.13;11.43;;;11.90;96.70;;;;;;5115668;27;20130;-75
2021/12/30 00:21:00;;;;;;;13.38;11.07;;;11.90;96.70;;;;;;5094183;27;20204;-76
2021/12/30 00:23:28;;;;;;;12.70;10.75;;;11.90;96.70;;;;;;5116627;27;20039;-75
2021/12/30 00:25:56;;;;;;;12.75;10.05;;;11.80;96.70;;;;;;5097573;27;20046;-75
2021/12/30 00:28:28;;;;;;;13.23;10.82;;;11.80;96.70;;;;;;5095806;27;20067;-76
2021/12/30 00:30:56;;;;;;;11.23;9.95;;;11.70;96.70;;;;;;5084133;27;20522;-76
2021/12/30 00:33:27;;;;;;;12.25;10.20;;;11.80;96.70;;;;;;5116282;27;20501;-75
2021/12/30 00:35:55;;;;;;;15.10;12.30;;;11.80;96.70;;;;;;5098820;27;20043;-75
2021/12/30 00:38:23;;;;;;;14.02;11.25;;;11.60;96.70;;;;;;5101198;27;20672;-76
2021/12/30 00:40:52;;;;;;;15.20;12.52;;;11.60;96.70;;;;;;5098739;27;20043;-75
2021/12/30 00:43:20;;;;;;;17.55;14.93;;;11.60;96.70;;;;;;5077552;27;20538;-75
2021/12/30 00:45:50;;;;;;;13.60;11.88;;;11.60;96.70;;;;;;5077320;28;20050;-76
2021/12/30 00:48:18;;;;;;;14.57;11.38;;;11.60;96.70;;;;;;5092254;27;20174;-76
2021/12/30 00:50:47;;;;;;;14.68;11.50;;;11.70;96.70;;;;;;5091256;27;20240;-76
2021/12/30 00:53:15;;;;;;;13.57;11.48;;;11.70;96.70;;;;;;5095500;28;20036;-75
2021/12/30 00:55:44;;;;;;;13.63;11.43;;;11.80;96.70;;;;;;5094356;27;20543;-76
2021/12/30 00:58:12;;;;;;;13.23;10.73;;;11.80;96.70;;;;;;5077041;28;20437;-76
2021/12/30 01:00:44;;;;;;;11.27;10.05;;;11.80;96.70;;;;;;5090262;28;20089;-75
2021/12/30 01:03:15;;;;;;;11.88;10.57;;;11.80;96.70;;;;;;5094157;28;20101;-75
2021/12/30 01:05:44;;;;;;;12.10;10.52;;;11.80;96.70;;;;;;5093972;27;20027;-75
2021/12/30 01:08:13;;;;;;;13.63;11.00;;;11.80;96.70;;;;;;5093060;27;20052;-75
2021/12/30 01:10:42;;;;;;;15.07;10.93;;;11.80;96.70;;;;;;5080127;27;20035;-76
2021/12/30 01:13:16;;;;;;;11.35;10.15;;;11.80;96.70;;;;;;5095153;27;20437;-76
2021/12/30 01:15:59;;;;;;;11.18;9.98;;;11.70;96.70;;;;;;5096067;27;20465;-75
2021/12/30 01:21:08;;;;;;;12.18;9.10;;;11.70;96.70;;;;;;5090918;27;20048;-76
2021/12/30 01:23:36;;;;;;;13.88;9.95;;;11.70;96.70;;;;;;5093294;27;20817;-75
2021/12/30 01:26:04;;;;;;;12.50;9.63;;;11.70;96.70;;;;;;5087278;27;20082;-75
2021/12/30 01:28:33;;;;;;;10.20;9.07;;;11.70;96.70;;;;;;5088774;28;20068;-75
2021/12/30 01:31:02;;;;;;;12.85;9.02;;;11.70;96.70;;;;;;5112725;27;20039;-75
2021/12/30 01:33:31;;;;;;;10.65;8.30;;;11.70;96.70;;;;;;5095255;27;20508;-75
2021/12/30 01:35:59;;;;;;;13.18;10.88;;;11.80;96.70;;;;;;5091375;28;20509;-75
2021/12/30 01:38:27;;;;;;;12.00;10.18;;;11.80;96.70;;;;;;5090627;28;20447;-75
2021/12/30 01:41:00;;;;;;;14.95;10.20;;;11.80;96.70;;;;;;5094595;28;20124;-75
2021/12/30 01:43:29;;;;;;;12.35;9.70;;;11.80;96.70;;;;;;5087554;27;20047;-75
2021/12/30 01:45:58;;;;;;;12.05;8.70;;;11.80;96.70;;;;;;5116771;27;20073;-75
2021/12/30 01:48:27;;;;;;;12.13;9.40;;;11.70;96.70;;;;;;5098323;27;20258;-75
2021/12/30 01:50:56;;;;;;;10.95;8.13;;;11.70;96.70;;;;;;5111797;27;20126;-75
2021/12/30 01:53:25;;;;;;;10.43;8.32;;;11.70;96.70;;;;;;5099566;27;20035;-76
2021/12/30 01:55:53;;;;;;;8.88;7.95;;;11.70;96.70;;;;;;5119725;27;20035;-75
2021/12/30 01:58:21;;;;;;;9.25;8.18;;;11.70;96.70;;;;;;5078610;28;20055;-75
2021/12/30 02:00:51;;;;;;;8.93;8.02;;;11.80;96.70;;;;;;5097549;27;20043;-75
2021/12/30 02:03:20;;;;;;;9.30;7.88;;;11.80;96.70;;;;;;5095926;27;20047;-75
2021/12/30 02:05:48;;;;;;;10.13;8.70;;;11.80;96.70;;;;;;5097239;27;20047;-75
2021/12/30 02:08:19;;;;;;;9.98;8.25;;;11.80;96.70;;;;;;5083898;27;20129;-75
2021/12/30 02:10:49;;;;;;;11.45;8.57;;;11.80;96.70;;;;;;5097160;27;20051;-75
2021/12/30 02:13:19;;;;;;;9.70;8.38;;;11.90;96.70;;;;;;5099408;27;20413;-75
2021/12/30 02:15:50;;;;;;;10.02;8.38;;;11.90;96.70;;;;;;5100003;27;20044;-76
2021/12/30 02:18:18;;;;;;;12.25;8.77;;;11.90;96.70;;;;;;5093636;27;21389;-75
2021/12/30 02:20:51;;;;;;;9.73;8.73;;;11.90;96.70;;;;;;5112696;27;20063;-75
2021/12/30 02:23:22;;;;;;;9.77;8.63;;;11.90;96.70;;;;;;5087797;27;20046;-76
2021/12/30 02:25:51;;;;;;;10.13;8.35;;;11.90;96.70;;;;;;5115578;27;20043;-75
2021/12/30 02:28:23;;;;;;;9.65;8.40;;;11.90;96.70;;;;;;5103622;27;20046;-75
2021/12/30 02:30:52;;;;;;;9.45;7.85;;;11.90;96.70;;;;;;5081756;27;20570;-75
2021/12/30 02:33:21;;;;;;;11.25;8.45;;;11.90;96.70;;;;;;5075375;27;20047;-75
2021/12/30 02:35:51;;;;;;;9.93;7.90;;;11.90;96.70;;;;;;5094812;27;20105;-75
2021/12/30 02:38:20;;;;;;;8.88;7.95;;;11.90;96.70;;;;;;5121337;27;20047;-75
2021/12/30 02:40:53;;;;;;;10.93;8.18;;;11.90;96.70;;;;;;5120408;27;20039;-75
2021/12/30 02:43:23;;;;;;;9.55;8.23;;;11.90;96.70;;;;;;5122144;27;20344;-75
2021/12/30 02:45:52;;;;;;;9.82;8.10;;;11.90;96.70;;;;;;5125323;27;20098;-75
2021/12/30 02:48:22;;;;;;;8.27;7.47;;;11.90;96.70;;;;;;5103656;27;20189;-75
2021/12/30 02:50:54;;;;;;;8.65;7.75;;;11.90;96.70;;;;;;5116441;27;20043;-75
2021/12/30 02:53:23;;;;;;;10.35;7.95;;;12.00;96.70;;;;;;5100934;27;21097;-75
2021/12/30 02:55:53;;;;;;;10.63;8.13;;;12.00;96.70;;;;;;5100608;27;20035;-75
2021/12/30 02:58:22;;;;;;;9.18;8.27;;;12.00;96.70;;;;;;5085527;27;20379;-75
2021/12/30 03:00:56;;;;;;;10.75;8.88;;;12.00;96.70;;;;;;5095817;27;20441;-75
2021/12/30 03:03:25;;;;;;;8.93;8.02;;;11.90;96.70;;;;;;5119581;27;20128;-75
2021/12/30 03:05:58;;;;;;;9.75;8.65;;;11.90;96.70;;;;;;5083375;27;20411;-75
2021/12/30 03:08:27;;;;;;;9.45;8.48;;;11.90;96.70;;;;;;5117418;27;20071;-75
2021/12/30 03:10:55;;;;;;;10.48;9.32;;;11.90;96.70;;;;;;5099479;27;20035;-75
2021/12/30 03:13:34;;;;;;;10.68;9.48;;;12.00;96.70;;;;;;5096818;27;20054;-75
2021/12/30 03:16:05;;;;;;;10.55;9.18;;;11.90;96.70;;;;;;5103487;27;20639;-76
2021/12/30 03:18:35;;;;;;;11.88;9.13;;;11.90;96.70;;;;;;5117364;27;20561;-76
2021/12/30 03:21:07;;;;;;;9.63;8.65;;;11.90;96.70;;;;;;5121649;27;20046;-75
2021/12/30 03:23:36;;;;;;;12.20;9.50;;;11.90;96.70;;;;;;5076740;27;20505;-75
2021/12/30 03:26:06;;;;;;;13.93;9.20;;;11.90;96.70;;;;;;5099489;27;20036;-75
2021/12/30 03:28:34;;;;;;;13.35;9.32;;;11.90;96.70;;;;;;5097717;27;20058;-76
2021/12/30 03:31:03;;;;;;;11.77;10.15;;;11.90;96.70;;;;;;5103931;27;20043;-75
2021/12/30 03:33:32;;;;;;;11.25;9.05;;;11.90;96.70;;;;;;5122407;27;20089;-75
2021/12/30 03:36:02;;;;;;;10.23;8.88;;;11.90;96.70;;;;;;5088926;27;20043;-75
2021/12/30 03:38:39;;;;;;;11.52;8.88;;;11.90;96.70;;;;;;5100676;27;20047;-75
2021/12/30 03:41:09;;;;;;;10.25;9.18;;;11.90;96.70;;;;;;5098608;27;20126;-75
2021/12/30 03:43:38;;;;;;;10.57;8.85;;;11.90;96.70;;;;;;5085125;27;20047;-75
2021/12/30 03:46:07;;;;;;;10.30;9.15;;;11.90;96.70;;;;;;5113903;27;20118;-75
2021/12/30 03:48:41;;;;;;;12.60;9.70;;;11.90;96.70;;;;;;5098903;27;20043;-75
2021/12/30 03:51:13;;;;;;;12.00;9.70;;;11.90;96.70;;;;;;5097784;27;20054;-75
2021/12/30 03:53:45;;;;;;;10.52;9.48;;;11.90;96.70;;;;;;5098596;27;20412;-76
2021/12/30 03:56:14;;;;;;;11.23;9.77;;;11.90;96.70;;;;;;5100985;27;20072;-75
2021/12/30 03:58:44;;;;;;;10.90;9.70;;;11.90;96.70;;;;;;5118650;27;20042;-75
2021/12/30 04:01:14;;;;;;;11.80;9.35;;;11.90;96.70;;;;;;5115545;27;20036;-75
2021/12/30 04:03:43;;;;;;;13.15;10.23;;;11.80;96.70;;;;;;5095114;27;20043;-75
2021/12/30 04:06:11;;;;;;;12.90;10.38;;;11.80;96.70;;;;;;5116274;27;20032;-75
2021/12/30 04:08:40;;;;;;;10.20;9.10;;;11.80;96.70;;;;;;5114513;27;20150;-75
2021/12/30 04:11:09;;;;;;;13.55;9.05;;;11.80;96.70;;;;;;5078218;27;20135;-73
2021/12/30 04:13:38;;;;;;;12.57;9.93;;;11.80;96.70;;;;;;5116797;27;20574;-74
2021/12/30 04:16:07;;;;;;;10.88;9.20;;;11.80;96.70;;;;;;5099224;27;20129;-76
2021/12/30 04:18:36;;;;;;;11.65;9.35;;;11.80;96.70;;;;;;5099563;27;20042;-74
2021/12/30 04:21:04;;;;;;;10.70;8.63;;;11.80;96.70;;;;;;5089496;27;20144;-74
2021/12/30 04:23:32;;;;;;;12.88;8.75;;;11.80;96.70;;;;;;5113545;27;20043;-74
2021/12/30 04:26:00;;;;;;;9.45;7.65;;;11.70;96.70;;;;;;5098405;27;20038;-75
2021/12/30 04:28:30;;;;;;;9.85;8.50;;;11.70;96.70;;;;;;5103273;27;20138;-73
2021/12/30 04:30:58;;;;;;;10.45;8.13;;;11.70;96.70;;;;;;5076306;27;20043;-75
2021/12/30 04:33:26;;;;;;;10.55;7.72;;;11.70;96.70;;;;;;5112596;27;20035;-74
2021/12/30 04:35:56;;;;;;;9.45;7.53;;;11.70;96.70;;;;;;5121610;27;20046;-74
2021/12/30 04:38:24;;;;;;;10.07;7.80;;;11.70;96.70;;;;;;5102375;27;20539;-74
2021/12/30 04:40:53;;;;;;;9.35;7.60;;;11.70;96.70;;;;;;5079991;27;20501;-75
2021/12/30 04:43:21;;;;;;;9.63;8.05;;;11.70;96.70;;;;;;5117307;27;20065;-75
2021/12/30 04:45:51;;;;;;;9.98;7.97;;;11.70;96.70;;;;;;5097294;27;20051;-75
2021/12/30 04:48:21;;;;;;;10.23;7.90;;;11.70;96.70;;;;;;5096857;28;20152;-74
2021/12/30 04:50:49;;;;;;;12.68;7.75;;;11.70;96.70;;;;;;5073908;28;20508;-74
2021/12/30 04:53:18;;;;;;;11.43;8.75;;;11.70;96.70;;;;;;5095261;27;20040;-74
2021/12/30 04:55:47;;;;;;;9.15;7.75;;;11.70;96.70;;;;;;5081416;28;20046;-75
2021/12/30 04:58:16;;;;;;;10.00;8.00;;;11.70;96.70;;;;;;5091092;27;20047;-74
2021/12/30 05:00:44;;;;;;;11.45;8.25;;;11.70;96.70;;;;;;5094957;27;20047;-74
2021/12/30 05:03:15;;;;;;;10.50;8.75;;;11.70;96.70;;;;;;5093596;27;20042;-74
2021/12/30 05:05:46;;;;;;;10.45;8.25;;;11.70;96.70;;;;;;5099657;27;20039;-74
2021/12/30 05:08:15;;;;;;;10.77;7.90;;;11.70;96.70;;;;;;5089504;27;20050;-75
2021/12/30 05:10:43;;;;;;;9.27;8.27;;;11.70;96.70;;;;;;5097495;27;20039;-74
2021/12/30 05:13:12;;;;;;;10.18;8.65;;;11.70;96.70;;;;;;5095137;28;20067;-74
2021/12/30 05:15:40;;;;;;;12.85;8.65;;;11.70;96.70;;;;;;5094930;27;20135;-75
2021/12/30 05:18:10;;;;;;;11.70;8.73;;;11.70;96.70;;;;;;5088901;28;20081;-74
2021/12/30 05:20:40;;;;;;;9.45;8.55;;;11.60;96.70;;;;;;5092228;27;20051;-74
2021/12/30 05:23:09;;;;;;;12.10;9.38;;;11.60;96.70;;;;;;5094546;27;20045;-74
2021/12/30 05:25:38;;;;;;;9.85;8.27;;;11.60;96.70;;;;;;5089423;27;20390;-74
2021/12/30 05:28:06;;;;;;;11.23;9.02;;;11.50;96.70;;;;;;5094106;27;20050;-74
2021/12/30 05:30:34;;;;;;;12.18;9.43;;;11.50;96.70;;;;;;5099448;27;20036;-75
2021/12/30 05:33:02;;;;;;;10.60;9.10;;;11.50;96.70;;;;;;5093768;27;20040;-74
2021/12/30 05:35:31;;;;;;;11.02;8.80;;;11.50;96.70;;;;;;5093118;28;20036;-74
2021/12/30 05:38:02;;;;;;;10.07;8.35;;;11.40;96.70;;;;;;5095775;27;20408;-74
2021/12/30 05:40:31;;;;;;;11.05;9.13;;;11.40;96.70;;;;;;5089739;27;20086;-74
2021/12/30 05:42:59;;;;;;;10.70;9.05;;;11.30;96.70;;;;;;5091384;27;20040;-74
2021/12/30 05:45:27;;;;;;;10.27;9.00;;;11.30;96.70;;;;;;5105638;27;20043;-74
2021/12/30 05:47:56;;;;;;;13.13;9.20;;;11.20;96.70;;;;;;5115216;27;20450;-74
2021/12/30 05:50:26;;;;;;;11.60;9.30;;;11.20;96.70;;;;;;5095220;27;20055;-74
2021/12/30 05:52:54;;;;;;;10.43;8.90;;;11.20;96.70;;;;;;5114999;27;20047;-74
2021/12/30 05:55:24;;;;;;;10.77;9.65;;;11.10;96.70;;;;;;5079619;27;20495;-74
2021/12/30 05:57:54;;;;;;;11.13;8.93;;;11.10;96.70;;;;;;5095833;27;20050;-74
2021/12/30 06:00:24;;;;;;;10.20;9.20;;;11.00;96.70;;;;;;5080229;27;20047;-74
2021/12/30 06:02:52;;;;;;;10.95;9.60;;;11.00;96.70;;;;;;5117481;27;20096;-74
2021/12/30 06:05:21;;;;;;;10.82;9.18;;;11.00;96.70;;;;;;5117592;27;20400;-74
2021/12/30 06:07:49;;;;;;;11.07;9.57;;;10.90;96.70;;;;;;5119458;27;20047;-74
2021/12/30 06:10:17;;;;;;;11.57;9.35;;;10.90;96.70;;;;;;5110253;27;20130;-74
2021/12/30 06:12:47;;;;;;;11.85;10.02;;;10.90;96.70;;;;;;5117735;27;20028;-74
2021/12/30 06:15:15;;;;;;;12.05;10.30;;;10.90;96.70;;;;;;5121742;27;20050;-74
2021/12/30 06:17:43;;;;;;;12.02;10.50;;;10.90;96.70;;;;;;5114923;27;20123;-75
2021/12/30 06:20:13;;;;;;;11.40;8.98;;;10.90;96.70;;;;;;5100657;27;20544;-74
2021/12/30 06:22:42;;;;;;;10.15;9.15;;;10.90;96.70;;;;;;5104023;27;20107;-74
2021/12/30 06:25:11;;;;;;;9.85;8.85;;;10.90;96.70;;;;;;5098120;27;20492;-74
2021/12/30 06:27:40;;;;;;;10.88;9.68;;;10.90;96.70;;;;;;5094578;27;20710;-74
2021/12/30 06:30:10;;;;;;;13.00;8.90;;;10.90;96.70;;;;;;5104697;27;20046;-74
2021/12/30 06:32:38;;;;;;;9.88;8.88;;;10.90;96.70;;;;;;5099191;27;20043;-74
2021/12/30 06:35:08;;;;;;;11.68;9.18;;;11.00;96.70;;;;;;5087720;27;20039;-75
2021/12/30 06:37:39;;;;;;;9.45;8.15;;;11.00;96.70;;;;;;5127927;27;20035;-74
2021/12/30 06:40:10;;;;;;;10.40;8.45;;;11.00;96.70;;;;;;5121440;27;23920;-74
2021/12/30 06:42:41;;;;;;;10.30;8.77;;;10.90;96.70;;;;;;5099203;27;20575;-74
2021/12/30 06:45:12;;;;;;;9.38;8.20;;;11.00;96.70;;;;;;5122868;27;20074;-74
2021/12/30 06:47:42;;;;;;;10.25;8.75;;;11.00;96.70;;;;;;5101741;27;20045;-74
2021/12/30 06:50:12;;;;;;;10.55;9.23;;;11.00;96.70;;;;;;5103314;27;20035;-75
2021/12/30 06:52:41;;;;;;;10.65;8.73;;;10.90;96.70;;;;;;5104692;27;20502;-74
2021/12/30 06:55:10;;;;;;;9.63;8.60;;;10.90;96.70;;;;;;5098713;27;20036;-74
2021/12/30 06:57:39;;;;;;;15.65;9.20;;;10.90;96.70;;;;;;5120555;27;20342;-74
2021/12/30 07:00:11;;;;;;;11.32;9.15;;;10.80;96.70;;;;;;5099937;27;20039;-73
2021/12/30 07:02:42;;;;;;;11.77;8.95;;;10.80;96.70;;;;;;5114034;27;20041;-73
2021/12/30 07:05:11;;;;;;;13.38;10.00;;;10.80;96.70;;;;;;5122756;27;20031;-73
2021/12/30 07:07:39;;;;;;;9.63;8.65;;;10.80;96.70;;;;;;5107395;27;20039;-73
2021/12/30 07:10:09;;;;;;;10.20;8.93;;;10.70;96.70;;;;;;5123322;27;20038;-73
2021/12/30 07:12:38;;;;;;;12.30;9.00;;;10.70;96.70;;;;;;5099438;27;20115;-74
2021/12/30 07:15:08;;;;;;;10.57;8.35;;;10.70;96.70;;;;;;5123552;27;20063;-74
2021/12/30 07:17:38;;;;;;;10.27;8.88;;;10.80;96.70;;;;;;5093227;27;20124;-74
2021/12/30 07:20:09;;;;;;;10.00;9.00;;;10.70;96.70;;;;;;5118608;27;20032;-73
2021/12/30 07:22:37;;;;;;;14.18;9.57;;;10.70;96.70;;;;;;5103420;27;20050;-74
2021/12/30 07:25:16;;;;;;;11.15;9.20;;;10.70;96.70;;;;;;5106433;27;20138;-73
2021/12/30 07:27:48;;;;;;;12.52;9.98;;;10.80;96.70;;;;;;5118094;27;20039;-76
2021/12/30 07:30:18;;;;;;;10.13;9.13;;;10.80;96.70;;;;;;5103179;27;20065;-76
2021/12/30 07:32:49;;;;;;;13.07;10.38;;;10.80;96.70;;;;;;5100058;27;20114;-76
2021/12/30 07:35:19;;;;;;;10.48;8.95;;;10.80;96.70;;;;;;5114183;27;20047;-76
2021/12/30 07:37:49;;;;;;;14.50;9.27;;;10.80;96.70;;;;;;5114442;27;20597;-75
2021/12/30 07:40:18;;;;;;;10.18;8.90;;;10.80;96.70;;;;;;5095884;27;20559;-75
2021/12/30 07:42:47;;;;;;;26.27;21.60;;;10.80;96.70;;;;;;5101694;27;20506;-76
2021/12/30 07:45:16;;;;;;;46.42;34.50;;;10.90;96.70;;;;;;5124975;27;20100;-73
2021/12/30 07:47:51;;;;;;;15.40;12.75;;;10.90;96.70;;;;;;5122347;27;20039;-74
2021/12/30 07:50:23;;;;;;;15.45;12.13;;;10.90;96.70;;;;;;5091515;27;20336;-73
2021/12/30 07:52:53;;;;;;;12.30;9.75;;;11.00;96.70;;;;;;5109347;27;20134;-74
2021/12/30 07:55:21;;;;;;;13.02;10.65;;;11.00;96.70;;;;;;5116877;27;20040;-74
2021/12/30 07:57:51;;;;;;;11.35;10.00;;;11.00;96.70;;;;;;5104450;27;20516;-74
2021/12/30 08:00:20;;;;;;;10.60;9.50;;;11.00;96.70;;;;;;5101119;27;20078;-74
2021/12/30 08:02:50;;;;;;;14.07;10.05;;;11.00;96.70;;;;;;5118978;27;20032;-74
2021/12/30 08:05:20;;;;;;;10.93;9.35;;;11.10;96.70;;;;;;5117795;27;20047;-74
2021/12/30 08:07:49;;;;;;;12.35;9.55;;;11.10;96.70;;;;;;5101113;27;20078;-73
2021/12/30 08:10:19;;;;;;;13.40;8.90;;;11.10;96.70;;;;;;5110902;27;20119;-75
2021/12/30 08:12:48;;;;;;;10.52;8.77;;;11.20;96.70;;;;;;5090624;27;20510;-73
2021/12/30 08:15:17;;;;;;;9.10;8.10;;;11.20;96.70;;;;;;5098614;27;20035;-73
2021/12/30 08:17:47;;;;;;;12.32;7.88;;;11.30;96.70;;;;;;5122462;27;20699;-73
2021/12/30 08:20:18;;;;;;;10.32;8.55;;;11.30;96.70;;;;;;5115885;27;20134;-74
2021/12/30 08:22:48;;;;;;;9.65;8.10;;;11.40;96.70;;;;;;5095051;27;20039;-74
2021/12/30 08:25:16;;;;;;;8.38;7.63;;;11.40;96.70;;;;;;5081660;27;20039;-75
2021/12/30 08:27:46;;;;;;;9.15;8.18;;;11.40;96.70;;;;;;5094125;27;20077;-74
2021/12/30 08:30:16;;;;;;;8.70;7.85;;;11.40;96.70;;;;;;5084452;27;20526;-75
2021/12/30 08:32:46;;;;;;;8.38;7.45;;;11.40;96.70;;;;;;5117926;27;20035;-74
2021/12/30 08:35:17;;;;;;;11.63;7.93;;;11.50;96.70;;;;;;5081885;27;20042;-74
2021/12/30 08:37:45;;;;;;;22.15;18.38;;;11.60;96.70;;;;;;5120488;27;20135;-74
2021/12/30 08:40:15;;;;;;;16.98;13.82;;;11.70;96.70;;;;;;5095264;27;20059;-74
2021/12/30 08:42:44;;;;;;;12.40;10.48;;;11.70;96.70;;;;;;5101417;27;20066;-74
2021/12/30 08:45:14;;;;;;;11.73;7.88;;;11.80;96.70;;;;;;5111236;27;20154;-75
2021/12/30 08:47:44;;;;;;;12.20;9.00;;;11.80;96.70;;;;;;5095446;27;20071;-75
2021/12/30 08:50:15;;;;;;;12.27;8.60;;;11.90;96.70;;;;;;5087362;27;20051;-74
2021/12/30 08:52:46;;;;;;;10.02;8.00;;;12.00;96.70;;;;;;5113884;27;20044;-74
2021/12/30 08:55:16;;;;;;;10.32;7.35;;;12.10;96.70;;;;;;5080809;27;20043;-74
2021/12/30 08:57:45;;;;;;;12.20;7.40;;;12.10;96.70;;;;;;5094074;27;20044;-74
2021/12/30 09:00:18;;;;;;;11.98;7.85;;;12.20;96.70;;;;;;5114135;27;20048;-74
2021/12/30 09:02:47;;;;;;;8.43;6.18;;;12.20;96.70;;;;;;5075833;27;20054;-75
2021/12/30 09:05:16;;;;;;;11.88;6.78;;;12.20;96.70;;;;;;5078861;27;20043;-75
2021/12/30 09:07:47;;;;;;;13.85;6.80;;;12.20;96.70;;;;;;5111524;27;20092;-74
2021/12/30 09:10:18;;;;;;;13.80;7.28;;;12.20;96.70;;;;;;5096105;27;20433;-76
2021/12/30 09:12:48;;;;;;;13.10;7.68;;;12.20;96.70;;;;;;5081192;27;20046;-77
2021/12/30 09:15:21;;;;;;;10.98;7.45;;;12.20;96.70;;;;;;5097692;27;20055;-77
2021/12/30 09:17:50;;;;;;;14.73;7.68;;;12.20;96.70;;;;;;5109632;27;20879;-77
2021/12/30 09:20:19;;;;;;;14.65;8.25;;;12.20;96.70;;;;;;5082218;27;20424;-77
2021/12/30 09:22:52;;;;;;;9.93;7.70;;;12.30;96.70;;;;;;5093006;27;20043;-76
2021/12/30 09:25:23;;;;;;;12.02;7.82;;;12.40;96.70;;;;;;5078345;27;20451;-75
2021/12/30 09:27:55;;;;;;;10.23;7.65;;;12.40;96.70;;;;;;5078198;27;20047;-74
2021/12/30 09:30:25;;;;;;;12.43;8.25;;;12.50;96.70;;;;;;5111047;27;20143;-74
2021/12/30 09:32:55;;;;;;;12.23;7.45;;;12.50;96.70;;;;;;5115641;27;20035;-75
2021/12/30 09:35:24;;;;;;;13.98;8.02;;;12.60;96.70;;;;;;5118823;27;20065;-75
2021/12/30 09:37:55;;;;;;;13.70;7.65;;;12.60;96.70;;;;;;5095427;27;20058;-75
2021/12/30 09:40:24;;;;;;;11.43;7.30;;;12.60;96.70;;;;;;5090075;27;20058;-75
2021/12/30 09:43:01;;;;;;;11.13;7.50;;;12.70;96.70;;;;;;5117617;27;20227;-75
2021/12/30 09:45:31;;;;;;;10.65;7.07;;;12.70;96.70;;;;;;5093383;27;20094;-75
2021/12/30 09:48:03;;;;;;;16.65;7.57;;;12.70;96.70;;;;;;5093572;27;20093;-75
2021/12/30 09:50:34;;;;;;;13.80;8.18;;;12.80;96.70;;;;;;5102347;27;20136;-75
2021/12/30 09:53:05;;;;;;;11.23;7.72;;;12.80;96.70;;;;;;5089258;27;20127;-75
2021/12/30 09:55:34;;;;;;;9.50;6.93;;;12.90;96.70;;;;;;5093432;28;20096;-73
2021/12/30 09:58:04;;;;;;;9.48;7.53;;;12.90;96.70;;;;;;5088167;27;20091;-75
2021/12/30 10:00:34;;;;;;;12.13;8.90;;;13.00;96.70;;;;;;5088848;28;20043;-76
2021/12/30 10:03:04;;;;;;;16.92;12.88;;;13.00;96.70;;;;;;5088516;28;20048;-75
2021/12/30 10:05:35;;;;;;;9.68;8.07;;;13.10;96.70;;;;;;5099822;28;20552;-74
2021/12/30 10:08:15;;;;;;;13.32;8.18;;;13.20;96.70;;;;;;5090071;28;20111;-74
2021/12/30 10:10:46;;;;;;;11.60;7.60;;;13.30;96.70;;;;;;5098564;28;20043;-74
2021/12/30 10:13:20;;;;;;;11.57;7.70;;;13.30;96.70;;;;;;5072291;28;20048;-73
2021/12/30 10:15:57;;;;;;;8.20;6.68;;;13.30;96.70;;;;;;5095792;28;20039;-74
2021/12/30 10:18:25;;;;;;;;;;;13.30;96.70;;;;;;5074840;28;20560;-74
2021/12/30 10:20:54;;;;;;;8.57;6.65;;;13.40;96.70;;;;;;5095729;28;19931;-74
2021/12/30 10:23:25;;;;;;;9.70;6.50;;;13.50;96.70;;;;;;5098763;28;20043;-74
2021/12/30 10:25:58;;;;;;;9.48;5.80;;;13.50;96.70;;;;;;5094845;28;20040;-73
2021/12/30 10:28:33;;;;;;;6.88;5.80;;;13.50;96.70;;;;;;5096290;28;20606;-74
2021/12/30 10:31:16;;;;;;;7.93;5.35;;;13.50;96.70;;;;;;5100395;28;20083;-73
2021/12/30 10:33:51;;;;;;;8.02;5.78;;;13.60;96.70;;;;;;5096140;28;20047;-74
2021/12/30 10:36:22;;;;;;;5.72;5.13;;;13.70;96.70;;;;;;5089806;28;20129;-75
2021/12/30 10:38:53;;;;;;;11.13;5.30;;;13.80;96.70;;;;;;5098392;28;20669;-75
2021/12/30 10:41:24;;;;;;;7.80;5.20;;;13.90;96.70;;;;;;5088419;28;20047;-75
2021/12/30 10:43:55;;;;;;;7.43;5.22;;;13.90;96.70;;;;;;5097653;28;20043;-75
2021/12/30 10:46:26;;;;;;;6.90;5.55;;;14.00;96.70;;;;;;5098802;27;20082;-76
2021/12/30 10:49:00;;;;;;;6.95;5.32;;;14.00;96.70;;;;;;5092081;27;20035;-76
2021/12/30 10:51:38;;;;;;;10.23;7.43;;;14.10;96.70;;;;;;5095088;28;20496;-77
2021/12/30 10:54:21;;;;;;;8.27;4.82;;;14.20;96.70;;;;;;5113163;27;20052;-75
2021/12/30 10:56:55;;;;;;;5.20;4.68;;;14.10;96.70;;;;;;5100222;27;20092;-76
2021/12/30 10:59:29;;;;;;;10.52;5.13;;;14.20;96.70;;;;;;5095916;27;20134;-76
2021/12/30 11:01:59;;;;;;;7.00;5.35;;;14.20;96.70;;;;;;5118415;27;20071;-76
2021/12/30 11:04:37;;;;;;;6.70;4.50;;;14.30;96.70;;;;;;5098156;27;20520;-75
2021/12/30 11:07:07;;;;;;;7.78;4.30;;;14.30;96.70;;;;;;5099998;27;20042;-76
2021/12/30 11:09:44;;;;;;;8.75;5.90;;;14.40;96.70;;;;;;5101087;27;20042;-74
2021/12/30 11:12:13;;;;;;;9.35;6.28;;;14.60;96.70;;;;;;5106908;27;20073;-73
2021/12/30 11:14:41;;;;;;;10.13;5.75;;;14.60;96.70;;;;;;5118982;27;20568;-75
2021/12/30 11:17:14;;;;;;;9.18;6.32;;;14.60;96.70;;;;;;5117757;27;20482;-75
2021/12/30 11:19:49;;;;;;;11.80;6.35;;;14.70;96.70;;;;;;5120714;27;20050;-75
2021/12/30 11:22:19;;;;;;;9.27;5.57;;;14.70;96.70;;;;;;5096574;27;20046;-75
2021/12/30 11:24:51;;;;;;;10.48;6.68;;;14.80;96.70;;;;;;5119583;27;20077;-76
2021/12/30 11:27:20;;;;;;;9.35;6.05;;;14.80;96.70;;;;;;5119292;27;20078;-75
2021/12/30 11:29:52;;;;;;;9.13;6.20;;;14.90;96.70;;;;;;5122633;27;20487;-76
2021/12/30 11:32:23;;;;;;;10.00;6.68;;;14.90;96.70;;;;;;5080496;27;20048;-75
2021/12/30 11:34:52;;;;;;;10.75;6.32;;;14.90;96.70;;;;;;5124820;27;20039;-75
2021/12/30 11:37:20;;;;;;;12.13;6.85;;;15.00;96.70;;;;;;5094518;27;20159;-74
2021/12/30 11:39:55;;;;;;;9.48;6.72;;;15.00;96.70;;;;;;5115609;27;20043;-75
2021/12/30 11:42:26;;;;;;;11.65;7.30;;;15.00;96.70;;;;;;5103731;27;20047;-75
2021/12/30 11:44:55;;;;;;;9.90;7.13;;;15.00;96.70;;;;;;5119437;27;20043;-75
2021/12/30 11:47:41;;;;;;;11.32;6.93;;;15.10;96.70;;;;;;5117725;27;20044;-75
2021/12/30 11:50:16;;;;;;;9.93;6.47;;;15.20;96.70;;;;;;5099460;27;20518;-75
2021/12/30 11:53:03;;;;;;;11.73;6.47;;;15.40;96.70;;;;;;5118467;27;20031;-75
2021/12/30 11:55:57;;;;;;;12.65;6.63;;;15.40;96.70;;;;;;5099774;27;20053;-76
2021/12/30 11:58:46;;;;;;;11.52;7.20;;;15.40;96.70;;;;;;5093568;27;20044;-77
2021/12/30 12:01:31;;;;;;;10.57;7.00;;;15.40;96.70;;;;;;5090240;27;20043;-75
2021/12/30 12:04:02;;;;;;;8.73;6.10;;;15.50;96.70;;;;;;5098269;27;20075;-77
2021/12/30 12:06:57;;;;;;;10.68;6.50;;;15.50;96.70;;;;;;5117313;27;20456;-77
2021/12/30 12:09:44;;;;;;;;;;;15.60;96.70;;;;;;5119799;27;20035;-77
2021/12/30 12:12:35;;;;;;;12.48;7.68;;;15.60;96.70;;;;;;5103321;27;19923;-75
2021/12/30 12:15:04;;;;;;;8.80;6.40;;;15.70;96.70;;;;;;5082119;27;20632;-76
2021/12/30 12:17:37;;;;;;;12.55;6.13;;;15.80;96.70;;;;;;5080962;27;20059;-77
2021/12/30 12:20:18;;;;;;;11.90;6.13;;;15.90;96.70;;;;;;5105045;27;20426;-77
2021/12/30 12:22:46;;;;;;;7.38;5.85;;;16.00;96.70;;;;;;5104274;27;20040;-78
2021/12/30 12:25:18;;;;;;;8.63;6.07;;;16.00;96.70;;;;;;5098572;27;20150;-77
2021/12/30 12:27:49;;;;;;;10.88;6.63;;;16.00;96.70;;;;;;5094198;27;20601;-77
2021/12/30 12:30:27;;;;;;;8.20;6.03;;;16.10;96.70;;;;;;5097110;27;20049;-77
2021/12/30 12:32:57;;;;;;;11.10;6.70;;;16.10;96.70;;;;;;5088435;27;20043;-76
2021/12/30 12:35:32;;;;;;;10.55;6.00;;;16.00;96.70;;;;;;5105666;27;20092;-77
2021/12/30 12:38:03;;;;;;;8.52;5.63;;;16.10;96.70;;;;;;5115344;27;20039;-78
2021/12/30 12:40:36;;;;;;;8.10;5.43;;;16.10;96.70;;;;;;5100824;27;20058;-75
2021/12/30 12:43:25;;;;;;;9.13;5.60;;;16.10;96.70;;;;;;5105028;27;20050;-75
2021/12/30 12:45:59;;;;;;;11.95;6.40;;;16.20;96.70;;;;;;5100582;27;20066;-75
2021/12/30 12:48:36;;;;;;;10.15;5.93;;;16.30;96.70;;;;;;5083066;27;20043;-75
2021/12/30 12:51:07;;;;;;;9.63;5.22;;;16.50;96.70;;;;;;5110794;27;20382;-75
2021/12/30 12:53:40;;;;;;;10.95;5.72;;;16.50;96.70;;;;;;5097162;27;20045;-75
2021/12/30 12:56:10;;;;;;;8.00;5.30;;;16.70;96.70;;;;;;5083539;27;20058;-75
2021/12/30 12:58:41;;;;;;;7.80;5.53;;;16.70;96.70;;;;;;5095161;27;20486;-75